createdAt,value
2023-05-05T00:01:37.305Z,7.41
2023-05-05T00:04:04.325Z,7.49
2023-05-05T00:06:31.557Z,7.42
2023-05-05T00:08:58.372Z,7.38
2023-05-05T00:11:26.059Z,7.50
2023-05-05T00:13:52.902Z,7.61
2023-05-05T00:16:20.080Z,7.52
2023-05-05T00:18:47.416Z,7.63
2023-05-05T00:21:14.072Z,7.47
2023-05-05T00:23:40.980Z,7.39
2023-05-05T00:26:07.692Z,7.42
2023-05-05T00:28:34.551Z,7.56
2023-05-05T00:31:01.736Z,7.47
2023-05-05T00:33:28.627Z,7.49
2023-05-05T00:35:55.361Z,7.47
2023-05-05T00:38:22.062Z,7.40
2023-05-05T00:40:48.846Z,7.55
2023-05-05T00:43:15.724Z,7.48
2023-05-05T00:45:44.694Z,7.46
2023-05-05T00:48:11.655Z,7.50
2023-05-05T00:50:38.799Z,7.42
2023-05-05T00:53:06.913Z,7.31
2023-05-05T00:55:34.921Z,7.44
2023-05-05T00:58:05.517Z,7.40
2023-05-05T01:00:33.380Z,7.34
2023-05-05T01:03:00.235Z,7.35
2023-05-05T01:05:36.983Z,7.34
2023-05-05T01:08:22.474Z,7.38
2023-05-05T01:10:55.290Z,7.39
2023-05-05T01:14:06.816Z,7.48
2023-05-05T01:16:36.055Z,7.37
2023-05-05T01:19:17.888Z,7.44
2023-05-05T01:21:49.836Z,7.46
2023-05-05T01:24:25.618Z,7.37
2023-05-05T01:27:20.986Z,7.29
2023-05-05T01:29:47.957Z,7.32
2023-05-05T01:32:16.234Z,7.47
2023-05-05T01:35:13.358Z,7.43
2023-05-05T01:37:40.023Z,7.31
2023-05-05T01:40:10.547Z,7.25
2023-05-05T01:42:42.630Z,7.29
2023-05-05T01:45:12.963Z,7.20
2023-05-05T01:47:41.994Z,7.23
2023-05-05T01:50:11.576Z,7.32
2023-05-05T01:52:40.164Z,7.31
2023-05-05T01:55:09.460Z,7.29
2023-05-05T01:57:39.575Z,7.30
2023-05-05T02:00:08.143Z,7.44
2023-05-05T02:02:42.910Z,7.32
2023-05-05T02:05:10.258Z,7.38
2023-05-05T02:07:37.241Z,7.44
2023-05-05T02:10:06.355Z,7.40
2023-05-05T02:12:35.387Z,7.40
2023-05-05T02:15:03.031Z,7.28
2023-05-05T02:17:30.882Z,7.28
2023-05-05T02:20:00.607Z,7.26
2023-05-05T02:22:27.842Z,7.33
2023-05-05T02:24:54.886Z,7.34
2023-05-05T02:27:24.679Z,7.36
2023-05-05T02:29:57.778Z,7.31
2023-05-05T02:32:37.753Z,7.25
2023-05-05T02:35:14.395Z,7.27
2023-05-05T02:37:56.958Z,7.23
2023-05-05T02:40:26.302Z,7.24
2023-05-05T02:42:57.409Z,7.18
2023-05-05T02:45:29.001Z,7.23
2023-05-05T02:47:55.922Z,7.25
2023-05-05T02:50:23.787Z,7.32
2023-05-05T02:53:02.237Z,7.38
2023-05-05T02:55:37.164Z,7.36
2023-05-05T02:58:11.925Z,7.35
2023-05-05T03:01:01.032Z,7.31
2023-05-05T03:03:39.410Z,7.37
2023-05-05T03:06:13.683Z,7.32
2023-05-05T03:08:53.943Z,7.29
2023-05-05T03:11:44.337Z,7.30
2023-05-05T03:14:13.633Z,7.37
2023-05-05T03:16:42.722Z,7.29
2023-05-05T03:19:12.007Z,7.27
2023-05-05T03:21:40.693Z,7.34
2023-05-05T03:24:13.461Z,7.39
2023-05-05T03:26:47.813Z,7.33
2023-05-05T03:29:18.264Z,7.34
2023-05-05T03:31:45.200Z,7.35
2023-05-05T03:34:12.229Z,7.37
2023-05-05T03:36:44.866Z,7.40
2023-05-05T03:39:14.570Z,7.42
2023-05-05T03:41:41.518Z,7.47
2023-05-05T03:44:10.599Z,7.39
2023-05-05T03:46:37.733Z,7.40
2023-05-05T03:49:09.846Z,7.32
2023-05-05T03:51:38.055Z,7.34
2023-05-05T03:54:04.957Z,7.37
2023-05-05T03:56:32.035Z,7.37
2023-05-05T03:58:58.763Z,7.40
2023-05-05T04:01:26.273Z,7.36
2023-05-05T04:03:53.068Z,7.34
2023-05-05T04:06:20.165Z,7.39
2023-05-05T04:08:46.927Z,7.37
2023-05-05T04:11:13.630Z,7.33
2023-05-05T04:13:41.453Z,7.36
2023-05-05T04:16:09.021Z,7.39
2023-05-05T04:18:37.353Z,7.31
2023-05-05T04:21:04.719Z,7.36
2023-05-05T04:23:34.128Z,7.41
2023-05-05T04:26:01.046Z,7.44
2023-05-05T04:28:28.210Z,7.39
2023-05-05T04:30:55.528Z,7.40
2023-05-05T04:33:22.726Z,7.45
2023-05-05T04:35:50.303Z,7.50
2023-05-05T04:38:17.336Z,7.52
2023-05-05T04:40:44.425Z,7.58
2023-05-05T04:43:11.783Z,7.52
2023-05-05T04:45:39.378Z,7.50
2023-05-05T04:48:06.642Z,7.53
2023-05-05T04:50:33.401Z,7.63
2023-05-05T04:53:00.879Z,7.53
2023-05-05T04:55:28.400Z,7.61
2023-05-05T04:57:55.536Z,7.66
2023-05-05T05:00:24.082Z,7.63
2023-05-05T05:02:52.564Z,7.78
2023-05-05T05:05:22.380Z,7.79
2023-05-05T05:07:49.542Z,7.77
2023-05-05T05:10:16.400Z,7.79
2023-05-05T05:12:43.299Z,7.84
2023-05-05T05:15:13.152Z,7.83
2023-05-05T05:17:40.841Z,7.93
2023-05-05T05:20:08.228Z,7.85
2023-05-05T05:22:38.318Z,7.87
2023-05-05T05:25:08.475Z,7.97
2023-05-05T05:27:35.217Z,8.06
2023-05-05T05:30:02.266Z,8.10
2023-05-05T05:32:30.783Z,8.10
2023-05-05T05:34:57.602Z,8.21
2023-05-05T05:37:24.613Z,8.23
2023-05-05T05:39:52.329Z,8.41
2023-05-05T05:42:23.220Z,8.52
2023-05-05T05:44:49.975Z,8.76
2023-05-05T05:47:16.731Z,8.95
2023-05-05T05:49:43.562Z,9.00
2023-05-05T05:52:10.925Z,9.17
2023-05-05T05:54:38.477Z,9.24
2023-05-05T05:57:06.945Z,9.27
2023-05-05T05:59:33.825Z,9.24
2023-05-05T06:02:02.031Z,8.99
2023-05-05T06:04:29.118Z,8.94
2023-05-05T06:06:56.964Z,8.94
2023-05-05T06:09:24.175Z,8.75
2023-05-05T06:11:52.361Z,8.83
2023-05-05T06:14:20.108Z,8.76
2023-05-05T06:16:47.086Z,8.93
2023-05-05T06:19:18.177Z,8.96
2023-05-05T06:21:45.303Z,9.09
2023-05-05T06:24:12.085Z,9.20
2023-05-05T06:26:38.911Z,9.30
2023-05-05T06:29:05.630Z,9.32
2023-05-05T06:31:32.387Z,9.33
2023-05-05T06:33:59.099Z,9.43
2023-05-05T06:36:26.370Z,9.67
2023-05-05T06:38:53.052Z,9.97
2023-05-05T06:41:19.789Z,10.01
2023-05-05T06:43:46.985Z,10.15
2023-05-05T06:46:14.305Z,10.19
2023-05-05T06:48:41.085Z,10.35
2023-05-05T06:51:08.964Z,10.33
2023-05-05T06:53:35.768Z,10.49
2023-05-05T06:56:02.430Z,10.35
2023-05-05T06:58:29.209Z,10.43
2023-05-05T07:00:56.393Z,10.53
2023-05-05T07:03:23.266Z,10.45
2023-05-05T07:05:49.984Z,10.55
2023-05-05T07:08:16.731Z,10.58
2023-05-05T07:10:44.057Z,10.41
2023-05-05T07:13:10.868Z,10.78
2023-05-05T07:15:37.719Z,10.55
2023-05-05T07:18:04.624Z,10.55
2023-05-05T07:20:31.446Z,10.32
2023-05-05T07:22:58.493Z,10.38
2023-05-05T07:25:25.111Z,10.00
2023-05-05T07:27:51.902Z,9.80
2023-05-05T07:30:19.538Z,9.80
2023-05-05T07:32:46.999Z,9.70
2023-05-05T07:35:13.910Z,9.53
2023-05-05T07:37:40.778Z,9.53
2023-05-05T07:40:08.356Z,9.37
2023-05-05T07:42:35.444Z,9.26
2023-05-05T07:45:02.472Z,9.19
2023-05-05T07:47:29.375Z,9.14
2023-05-05T07:49:56.277Z,9.07
2023-05-05T07:52:37.094Z,9.05
2023-05-05T07:55:10.545Z,8.87
2023-05-05T07:57:37.431Z,8.91
2023-05-05T08:00:04.792Z,8.83
2023-05-05T08:02:51.430Z,8.88
2023-05-05T08:05:18.488Z,8.73
2023-05-05T08:07:45.150Z,8.72
2023-05-05T08:10:12.616Z,8.58
2023-05-05T08:12:40.039Z,8.66
2023-05-05T08:15:08.027Z,8.60
2023-05-05T08:17:48.820Z,8.67
2023-05-05T08:20:16.964Z,8.66
2023-05-05T08:22:44.421Z,8.71
2023-05-05T08:25:13.902Z,8.57
2023-05-05T08:27:42.153Z,8.47
2023-05-05T08:30:10.120Z,8.45
2023-05-05T08:32:38.364Z,8.55
2023-05-05T08:35:06.560Z,8.47
2023-05-05T08:37:33.758Z,8.50
2023-05-05T08:40:00.588Z,8.42
2023-05-05T08:42:37.216Z,8.50
2023-05-05T08:45:07.718Z,8.44
2023-05-05T08:47:37.036Z,8.35
2023-05-05T08:50:05.701Z,8.50
2023-05-05T08:52:40.382Z,8.55
2023-05-05T08:55:18.123Z,8.46
2023-05-05T08:57:56.691Z,8.47
2023-05-05T09:00:26.508Z,8.50
2023-05-05T09:02:56.816Z,8.50
2023-05-05T09:05:24.406Z,8.54
2023-05-05T09:07:51.372Z,8.57
2023-05-05T09:10:18.586Z,8.49
2023-05-05T09:12:45.512Z,8.61
2023-05-05T09:15:14.373Z,8.45
2023-05-05T09:17:42.283Z,8.40
2023-05-05T09:20:11.707Z,8.55
2023-05-05T09:22:48.074Z,8.48
2023-05-05T09:25:16.943Z,8.53
2023-05-05T09:27:46.254Z,8.53
2023-05-05T09:30:19.485Z,8.51
2023-05-05T09:32:54.048Z,8.55
2023-05-05T09:35:22.457Z,8.38
2023-05-05T09:37:49.288Z,8.35
2023-05-05T09:40:18.034Z,8.43
2023-05-05T09:42:45.216Z,8.38
2023-05-05T09:45:18.015Z,8.45
2023-05-05T09:47:49.136Z,8.49
2023-05-05T09:50:18.825Z,8.48
2023-05-05T09:52:56.300Z,8.50
2023-05-05T09:55:24.156Z,8.35
2023-05-05T09:57:51.172Z,8.49
2023-05-05T10:00:18.148Z,8.42
2023-05-05T10:02:45.598Z,8.39
2023-05-05T10:05:14.967Z,8.47
2023-05-05T10:07:44.750Z,8.37
2023-05-05T10:10:16.996Z,8.33
2023-05-05T10:12:46.650Z,8.28
2023-05-05T10:15:15.782Z,8.32
2023-05-05T10:18:05.378Z,8.19
2023-05-05T10:20:36.405Z,8.12
2023-05-05T10:23:06.969Z,8.20
2023-05-05T10:25:45.115Z,8.04
2023-05-05T10:28:20.182Z,8.11
2023-05-05T10:30:51.328Z,8.13
2023-05-05T10:33:33.955Z,8.11
2023-05-05T10:36:06.101Z,8.12
2023-05-05T10:38:34.130Z,8.10
2023-05-05T10:41:02.240Z,8.12
2023-05-05T10:43:31.424Z,8.11
2023-05-05T10:45:59.350Z,8.16
2023-05-05T10:48:42.657Z,8.15
2023-05-05T10:51:40.081Z,8.15
2023-05-05T10:54:22.193Z,8.16
2023-05-05T10:56:49.730Z,8.20
2023-05-05T10:59:38.487Z,8.20
2023-05-05T11:02:29.091Z,8.08
2023-05-05T11:05:18.120Z,8.18
2023-05-05T11:07:46.594Z,8.15
2023-05-05T11:10:15.039Z,8.16
2023-05-05T11:12:52.683Z,8.14
2023-05-05T11:15:31.491Z,8.06
2023-05-05T11:18:00.727Z,8.15
2023-05-05T11:20:37.678Z,8.12
2023-05-05T11:23:04.837Z,8.11
2023-05-05T11:25:35.362Z,8.07
2023-05-05T11:28:09.663Z,8.04
2023-05-05T11:30:59.688Z,7.97
2023-05-05T11:33:33.506Z,8.02
2023-05-05T11:36:06.810Z,8.01
2023-05-05T11:38:53.004Z,8.02
2023-05-05T11:41:52.479Z,8.08
2023-05-05T11:44:21.065Z,8.07
2023-05-05T11:46:54.302Z,8.04
2023-05-05T11:49:27.879Z,8.06
2023-05-05T11:52:02.700Z,8.03
2023-05-05T11:54:30.269Z,8.09
2023-05-05T11:56:59.155Z,8.08
2023-05-05T11:59:26.125Z,8.03
2023-05-05T12:01:53.112Z,8.00
2023-05-05T12:04:20.654Z,8.06
2023-05-05T12:06:48.999Z,8.04
2023-05-05T12:09:21.255Z,8.07
2023-05-05T12:11:58.773Z,8.12
2023-05-05T12:14:26.046Z,8.08
2023-05-05T12:17:04.312Z,8.03
2023-05-05T12:19:33.597Z,8.01
2023-05-05T12:22:04.655Z,8.02
2023-05-05T12:24:31.610Z,8.00
2023-05-05T12:27:08.747Z,7.99
2023-05-05T12:29:35.512Z,8.02
2023-05-05T12:32:02.350Z,7.97
2023-05-05T12:34:29.435Z,7.95
2023-05-05T12:36:56.311Z,7.95
2023-05-05T12:39:23.045Z,8.06
2023-05-05T12:41:49.991Z,7.95
2023-05-05T12:44:16.710Z,8.05
2023-05-05T12:46:46.972Z,8.06
2023-05-05T12:49:13.846Z,8.01
2023-05-05T12:51:53.829Z,8.06
2023-05-05T12:54:20.632Z,8.00
2023-05-05T12:56:48.368Z,8.04
2023-05-05T12:59:21.186Z,7.98
2023-05-05T13:01:53.312Z,7.93
2023-05-05T13:04:22.946Z,7.92
2023-05-05T13:07:11.135Z,7.95
2023-05-05T13:09:37.895Z,7.97
2023-05-05T13:12:05.017Z,7.94
2023-05-05T13:14:31.952Z,7.96
2023-05-05T13:16:58.845Z,7.95
2023-05-05T13:19:25.782Z,7.95
2023-05-05T13:21:52.974Z,7.97
2023-05-05T13:24:28.704Z,8.10
2023-05-05T13:27:05.592Z,8.07
2023-05-05T13:29:33.583Z,8.08
2023-05-05T13:32:00.551Z,8.04
2023-05-05T13:34:27.317Z,8.04
2023-05-05T13:36:54.068Z,8.05
2023-05-05T13:39:21.453Z,8.11
2023-05-05T13:41:48.197Z,8.06
2023-05-05T13:44:18.407Z,8.09
2023-05-05T13:46:45.294Z,8.08
2023-05-05T13:49:12.068Z,8.10
2023-05-05T13:51:39.213Z,8.09
2023-05-05T13:54:06.914Z,8.05
2023-05-05T13:56:34.276Z,8.14
2023-05-05T13:59:01.293Z,8.10
2023-05-05T14:01:28.559Z,8.11
2023-05-05T14:03:57.399Z,8.13
2023-05-05T14:06:24.599Z,8.14
2023-05-05T14:08:51.708Z,8.08
2023-05-05T14:11:20.808Z,8.15
2023-05-05T14:13:48.209Z,8.15
2023-05-05T14:16:15.044Z,8.11
2023-05-05T14:18:41.816Z,8.15
2023-05-05T14:21:08.655Z,8.16
2023-05-05T14:23:35.687Z,8.14
2023-05-05T14:26:04.057Z,8.16
2023-05-05T14:28:30.894Z,8.06
2023-05-05T14:30:57.635Z,8.14
2023-05-05T14:33:24.466Z,8.13
2023-05-05T14:35:51.290Z,8.09
2023-05-05T14:38:18.413Z,8.18
2023-05-05T14:40:45.208Z,8.23
2023-05-05T14:43:11.993Z,8.13
2023-05-05T14:45:38.689Z,8.13
2023-05-05T14:48:05.646Z,8.12
2023-05-05T14:50:32.452Z,8.14
2023-05-05T14:52:59.181Z,8.11
2023-05-05T14:55:26.112Z,8.05
2023-05-05T14:57:52.828Z,8.09
2023-05-05T15:00:19.598Z,8.02
2023-05-05T15:02:48.322Z,7.96
2023-05-05T15:05:15.334Z,8.00
2023-05-05T15:07:42.108Z,7.96
2023-05-05T15:10:09.286Z,8.02
2023-05-05T15:12:36.420Z,8.15
2023-05-05T15:15:05.175Z,8.08
2023-05-05T15:17:32.145Z,8.03
2023-05-05T15:19:58.911Z,7.91
2023-05-05T15:22:26.065Z,8.00
2023-05-05T15:24:53.239Z,7.91
2023-05-05T15:27:20.023Z,7.90
2023-05-05T15:29:46.858Z,7.98
2023-05-05T15:32:13.581Z,7.98
2023-05-05T15:34:40.668Z,7.95
2023-05-05T15:37:07.564Z,7.86
2023-05-05T15:39:34.227Z,7.90
2023-05-05T15:42:03.907Z,7.89
2023-05-05T15:44:31.454Z,7.97
2023-05-05T15:46:58.185Z,7.90
2023-05-05T15:49:25.033Z,7.94
2023-05-05T15:51:51.755Z,7.88
2023-05-05T15:54:18.461Z,7.91
2023-05-05T15:56:45.158Z,7.92
2023-05-05T15:59:11.843Z,7.91
2023-05-05T16:01:38.766Z,7.87
2023-05-05T16:04:05.772Z,8.02
2023-05-05T16:06:32.700Z,7.83
2023-05-05T16:08:59.527Z,7.89
2023-05-05T16:11:26.952Z,7.86
2023-05-05T16:13:53.908Z,7.82
2023-05-05T16:16:21.028Z,7.88
2023-05-05T16:18:48.082Z,7.80
2023-05-05T16:21:15.105Z,7.79
2023-05-05T16:23:42.872Z,7.81
2023-05-05T16:26:09.657Z,7.84
2023-05-05T16:28:37.655Z,7.86
2023-05-05T16:31:04.529Z,7.83
2023-05-05T16:33:31.475Z,7.82
2023-05-05T16:35:58.250Z,7.90
2023-05-05T16:38:24.962Z,7.86
2023-05-05T16:40:51.865Z,7.96
2023-05-05T16:43:19.600Z,7.83
2023-05-05T16:45:46.693Z,7.87
2023-05-05T16:48:14.740Z,7.85
2023-05-05T16:50:41.552Z,7.93
2023-05-05T16:53:09.231Z,7.92
2023-05-05T16:55:36.813Z,7.87
2023-05-05T16:58:04.516Z,7.88
2023-05-05T17:00:31.283Z,7.93
2023-05-05T17:02:58.228Z,7.90
2023-05-05T17:05:25.173Z,7.84
2023-05-05T17:07:52.329Z,7.84
2023-05-05T17:10:21.602Z,7.90
2023-05-05T17:12:48.615Z,7.88
2023-05-05T17:15:15.343Z,7.84
2023-05-05T17:17:43.104Z,7.81
2023-05-05T17:20:10.966Z,7.81
2023-05-05T17:22:38.097Z,7.86
2023-05-05T17:25:05.785Z,7.83
2023-05-05T17:27:32.525Z,7.82
2023-05-05T17:29:59.267Z,7.82
2023-05-05T17:32:26.566Z,7.82
2023-05-05T17:34:53.349Z,7.82
2023-05-05T17:37:20.094Z,7.86
2023-05-05T17:39:46.726Z,7.85
2023-05-05T17:42:13.799Z,7.87
2023-05-05T17:44:40.548Z,7.83
2023-05-05T17:47:10.605Z,7.82
2023-05-05T17:49:37.405Z,7.91
2023-05-05T17:52:04.279Z,7.81
2023-05-05T17:54:34.132Z,7.82
2023-05-05T17:57:00.842Z,7.84
2023-05-05T17:59:27.567Z,7.81
2023-05-05T18:01:54.218Z,7.83
2023-05-05T18:04:21.162Z,7.95
2023-05-05T18:06:50.030Z,7.91
2023-05-05T18:09:19.106Z,7.89
2023-05-05T18:11:45.868Z,7.84
2023-05-05T18:14:12.721Z,7.78
2023-05-05T18:16:47.678Z,7.80
2023-05-05T18:19:14.469Z,7.91
2023-05-05T18:21:41.520Z,7.82
2023-05-05T18:24:19.295Z,7.82
2023-05-05T18:26:51.427Z,7.92
2023-05-05T18:29:19.415Z,7.87
2023-05-05T18:31:49.602Z,7.77
2023-05-05T18:34:17.490Z,7.80
2023-05-05T18:36:46.371Z,7.82
2023-05-05T18:39:13.946Z,7.82
2023-05-05T18:41:41.050Z,7.89
2023-05-05T18:44:08.017Z,7.83
2023-05-05T18:46:34.888Z,7.96
2023-05-05T18:49:02.104Z,7.87
2023-05-05T18:51:28.806Z,7.83
2023-05-05T18:53:55.791Z,7.88
2023-05-05T18:56:22.460Z,7.92
2023-05-05T18:58:49.444Z,7.85
2023-05-05T19:01:16.495Z,7.88
2023-05-05T19:03:48.006Z,7.89
2023-05-05T19:06:15.510Z,7.88
2023-05-05T19:08:43.266Z,7.83
2023-05-05T19:11:10.128Z,7.79
2023-05-05T19:16:11.907Z,7.84
2023-05-05T19:18:39.692Z,7.81
2023-05-05T19:21:06.820Z,7.80
2023-05-05T19:23:34.647Z,7.84
2023-05-05T19:26:03.646Z,7.98
2023-05-05T19:28:30.399Z,7.97
2023-05-05T19:30:58.357Z,8.03
2023-05-05T19:33:26.023Z,8.02
2023-05-05T19:35:52.772Z,7.87
2023-05-05T19:38:19.504Z,7.91
2023-05-05T19:40:46.559Z,7.88
2023-05-05T19:43:13.268Z,7.86
2023-05-05T19:45:43.169Z,7.93
2023-05-05T19:48:11.237Z,7.89
2023-05-05T19:50:37.992Z,7.98
2023-05-05T19:53:07.296Z,7.92
2023-05-05T19:55:35.608Z,7.90
2023-05-05T19:58:02.348Z,7.90
2023-05-05T20:00:29.274Z,7.92
2023-05-05T20:02:55.969Z,7.88
2023-05-05T20:05:22.998Z,7.98
2023-05-05T20:07:50.230Z,7.92
2023-05-05T20:10:17.912Z,7.82
2023-05-05T20:12:48.909Z,7.96
2023-05-05T20:15:19.664Z,7.88
2023-05-05T20:17:47.530Z,7.89
2023-05-05T20:20:21.958Z,7.91
2023-05-05T20:22:49.713Z,7.94
2023-05-05T20:25:16.546Z,7.93
2023-05-05T20:27:43.404Z,7.87
2023-05-05T20:30:10.913Z,7.92
2023-05-05T20:32:38.110Z,7.92
2023-05-05T20:35:06.174Z,7.91
2023-05-05T20:37:32.954Z,8.04
2023-05-05T20:39:59.744Z,7.94
2023-05-05T20:42:27.785Z,7.92
2023-05-05T20:44:54.758Z,8.13
2023-05-05T20:47:21.442Z,8.06
2023-05-05T20:49:50.303Z,8.04
2023-05-05T20:52:17.016Z,7.98
2023-05-05T20:54:43.795Z,8.05
2023-05-05T20:57:10.997Z,8.05
2023-05-05T20:59:38.101Z,7.96
2023-05-05T21:02:04.856Z,7.97
2023-05-05T21:04:31.766Z,8.15
2023-05-05T21:06:58.480Z,8.07
2023-05-05T21:09:25.285Z,8.02
2023-05-05T21:11:51.973Z,7.95
2023-05-05T21:14:18.793Z,8.02
2023-05-05T21:16:45.637Z,8.01
2023-05-05T21:19:12.596Z,8.01
2023-05-05T21:21:40.024Z,8.03
2023-05-05T21:24:08.088Z,8.08
2023-05-05T21:26:35.108Z,8.15
2023-05-05T21:29:01.830Z,8.09
2023-05-05T21:31:29.045Z,8.11
2023-05-05T21:33:55.832Z,8.15
2023-05-05T21:36:26.296Z,8.09
2023-05-05T21:38:56.656Z,8.00
2023-05-05T21:41:24.804Z,8.04
2023-05-05T21:43:54.741Z,8.03
2023-05-05T21:46:22.184Z,8.11
2023-05-05T21:48:48.904Z,8.13
2023-05-05T21:51:15.905Z,8.07
2023-05-05T21:53:42.853Z,7.95
2023-05-05T21:56:09.746Z,8.01
2023-05-05T21:58:36.542Z,8.08
2023-05-05T22:01:03.349Z,8.15
2023-05-05T22:03:30.131Z,8.03
2023-05-05T22:05:58.170Z,8.08
2023-05-05T22:08:26.086Z,8.05
2023-05-05T22:10:52.768Z,8.05
2023-05-05T22:13:19.545Z,8.08
2023-05-05T22:15:47.400Z,8.01
2023-05-05T22:18:15.294Z,8.09
2023-05-05T22:20:45.257Z,8.09
2023-05-05T22:23:14.012Z,8.09
2023-05-05T22:25:40.897Z,8.16
2023-05-05T22:28:11.568Z,8.17
2023-05-05T22:30:38.275Z,8.13
2023-05-05T22:33:05.100Z,8.12
2023-05-05T22:35:33.939Z,8.13
2023-05-05T22:38:01.490Z,8.21
2023-05-05T22:40:28.382Z,8.08
2023-05-05T22:42:55.202Z,8.04
2023-05-05T22:45:23.183Z,8.04
2023-05-05T22:47:50.220Z,7.98
2023-05-05T22:50:20.071Z,7.97
2023-05-05T22:52:46.910Z,8.11
2023-05-05T22:55:15.029Z,8.01
2023-05-05T22:57:42.313Z,7.98
2023-05-05T23:00:10.681Z,8.00
2023-05-05T23:02:38.118Z,8.13
2023-05-05T23:05:05.289Z,8.16
2023-05-05T23:07:32.317Z,8.09
2023-05-05T23:09:59.045Z,8.04
2023-05-05T23:12:25.935Z,8.05
2023-05-05T23:14:52.774Z,8.01
2023-05-05T23:17:19.671Z,8.05
2023-05-05T23:19:47.887Z,8.05
2023-05-05T23:22:14.912Z,7.97
2023-05-05T23:24:41.711Z,7.99
2023-05-05T23:27:08.458Z,8.02
2023-05-05T23:29:35.464Z,8.05
2023-05-05T23:32:02.146Z,8.04
2023-05-05T23:34:28.815Z,7.96
2023-05-05T23:36:56.962Z,7.99
2023-05-05T23:39:23.688Z,7.92
2023-05-05T23:41:52.636Z,7.97
2023-05-05T23:44:20.725Z,8.07
2023-05-05T23:46:47.417Z,8.10
2023-05-05T23:49:14.154Z,8.10
2023-05-05T23:51:41.430Z,8.11
2023-05-05T23:54:08.480Z,8.14
2023-05-05T23:56:35.771Z,8.14
2023-05-05T23:59:02.416Z,8.14
